Albertville, Minnesota
Current Conditions -  °F | °C
As of 4:55 PM on Monday 22 Dec 2014 (Local Time) from KCFE Reporting Station
Drizzle Drizzle  
Wind Chill: 28°   Ceiling: 700
Heat Index: 34°   Visibility: 4mi
Dew Point: 32°   Wind: 8mph
Humidity: 92%   Direction: 80°E
Pressure: 29.6"   Gusts: NA
Location:  45.24°N, 93.65°W
Report Text: KCFE 222255Z AUTO 08007KT 4SM -DZ OVC007 01/00 A2960 RMK AO2 T00130002
Loading
Personal Weather Stations






























Interactive Weather Map New forecast layout! Learn more

10-Day Weather Forecast

Advertisements
Track Severe Weather on mobile